Time;durP1;ratioP1;P1;durP2;ratioP2;P2;SDS_P1;SDS_P2;PMS_P1;PMS_P2;Temp;Humidity;BMP_temperature;BMP_pressure;BME280_temperature;BME280_humidity;BME280_pressure;Samples;Min_cycle;Max_cycle;Signal;HPM_P1;HPM_P2
2021/10/04 00:00:51;;;;;;;12.20;8.73;;;;;;;12.43;100.00;98868.13;2283609;78;21053;-86
2021/10/04 00:03:52;;;;;;;11.78;9.28;;;;;;;12.42;100.00;98871.76;2283623;78;21038;-86
2021/10/04 00:06:53;;;;;;;13.30;9.98;;;;;;;12.34;100.00;98865.31;2285372;78;21009;-87
2021/10/04 00:09:54;;;;;;;13.95;9.88;;;;;;;12.29;100.00;98875.08;2284748;78;21532;-86
2021/10/04 00:12:54;;;;;;;12.65;10.38;;;;;;;12.36;100.00;98871.21;2283753;78;21041;-86
2021/10/04 00:15:55;;;;;;;11.33;10.18;;;;;;;12.35;100.00;98879.59;2283027;78;20971;-86
2021/10/04 00:18:56;;;;;;;11.60;9.50;;;;;;;12.23;100.00;98874.50;2283753;78;21622;-86
2021/10/04 00:21:57;;;;;;;13.00;9.68;;;;;;;12.20;100.00;98882.25;2283232;78;21014;-86
2021/10/04 00:24:58;;;;;;;10.88;9.03;;;;;;;12.26;100.00;98873.33;2283156;78;20982;-87
2021/10/04 00:27:59;;;;;;;9.43;8.48;;;;;;;12.30;100.00;98874.58;2283154;78;21005;-87
2021/10/04 00:30:59;;;;;;;12.78;9.83;;;;;;;12.33;100.00;98875.00;2283278;78;20946;-86
2021/10/04 00:34:00;;;;;;;13.88;10.68;;;;;;;12.26;100.00;98875.96;2283586;78;21084;-86
2021/10/04 00:37:01;;;;;;;11.22;9.95;;;;;;;12.18;100.00;98871.63;2282717;78;20989;-86
2021/10/04 00:40:02;;;;;;;14.30;10.25;;;;;;;12.10;100.00;98872.55;2283163;78;20953;-86
2021/10/04 00:43:03;;;;;;;17.60;11.03;;;;;;;12.09;100.00;98882.74;2283132;78;20957;-86
2021/10/04 00:46:03;;;;;;;11.20;9.58;;;;;;;12.11;100.00;98875.48;2283155;78;20981;-87
2021/10/04 00:49:04;;;;;;;14.65;10.53;;;;;;;12.14;100.00;98880.36;2295307;76;21072;-89
2021/10/04 00:52:05;;;;;;;11.57;10.18;;;;;;;12.18;100.00;98880.82;2307048;77;21007;-91
2021/10/04 00:55:06;;;;;;;12.25;9.93;;;;;;;12.09;100.00;98880.12;2307260;77;20991;-91
2021/10/04 00:58:07;;;;;;;10.88;9.75;;;;;;;11.98;100.00;98874.52;2307560;77;21018;-90
2021/10/04 01:01:07;;;;;;;11.12;9.55;;;;;;;11.84;100.00;98868.31;2308709;77;20934;-92
2021/10/04 01:04:08;;;;;;;12.65;9.88;;;;;;;11.77;100.00;98872.63;2311523;77;20998;-91
2021/10/04 01:07:09;;;;;;;13.83;9.95;;;;;;;11.74;100.00;98861.20;2311458;77;21025;-92
2021/10/04 01:10:10;;;;;;;12.70;9.85;;;;;;;11.68;100.00;98864.04;2311202;77;20966;-92
2021/10/04 01:13:11;;;;;;;11.57;10.13;;;;;;;11.61;100.00;98865.77;2311638;77;21001;-94
2021/10/04 01:16:12;;;;;;;11.70;10.25;;;;;;;11.59;100.00;98852.02;2311975;77;20960;-92
2021/10/04 01:19:13;;;;;;;15.00;10.78;;;;;;;11.61;100.00;98857.89;2312075;77;20907;-90
2021/10/04 01:22:13;;;;;;;11.83;10.53;;;;;;;11.59;100.00;98859.89;2309643;77;21014;-89
2021/10/04 01:25:14;;;;;;;13.75;10.13;;;;;;;11.52;100.00;98868.16;2306907;77;20993;-90
2021/10/04 01:28:15;;;;;;;12.30;10.25;;;;;;;11.52;100.00;98868.16;2306784;77;21065;-90
2021/10/04 01:31:21;;;;;;;13.75;10.38;;;;;;;11.45;100.00;98871.22;2306619;77;20989;-86
2021/10/04 01:34:19;;;;;;;11.88;10.50;;;;;;;11.48;100.00;98868.22;2305874;77;21057;-88
2021/10/04 01:37:20;;;;;;;14.65;11.10;;;;;;;11.48;100.00;98877.40;2306624;77;21003;-88
2021/10/04 01:40:20;;;;;;;16.17;11.00;;;;;;;11.42;100.00;98876.80;2306470;77;20989;-87
2021/10/04 01:43:21;;;;;;;11.97;10.23;;;;;;;11.36;100.00;98873.11;2306517;77;21034;-89
2021/10/04 01:46:22;;;;;;;14.33;11.55;;;;;;;11.31;100.00;98874.13;2306721;77;21618;-87
2021/10/04 01:49:23;;;;;;;13.65;10.95;;;;;;;11.20;100.00;98876.70;2306471;77;21215;-88
2021/10/04 01:52:24;;;;;;;14.95;10.88;;;;;;;11.11;100.00;98873.85;2306508;77;21013;-88
2021/10/04 01:55:24;;;;;;;14.05;10.80;;;;;;;11.09;100.00;98870.60;2306667;77;21057;-88
2021/10/04 01:58:25;;;;;;;16.60;13.10;;;;;;;11.07;100.00;98870.78;2306686;77;20946;-88
2021/10/04 02:01:26;;;;;;;13.40;12.00;;;;;;;11.01;100.00;98879.34;2306650;77;21006;-87
2021/10/04 02:04:27;;;;;;;14.18;12.23;;;;;;;10.98;100.00;98873.17;2306389;77;21057;-87
2021/10/04 02:07:28;;;;;;;17.40;13.83;;;;;;;10.94;100.00;98867.13;2276115;77;21455;-87
2021/10/04 02:10:28;;;;;;;14.87;13.22;;;;;;;10.92;100.00;98871.25;2307165;77;20978;-89
2021/10/04 02:13:29;;;;;;;16.30;12.78;;;;;;;10.92;100.00;98867.81;2307018;77;21006;-86
2021/10/04 02:16:30;;;;;;;14.03;10.65;;;;;;;10.86;100.00;98865.40;2310165;77;20989;-87
2021/10/04 02:19:31;;;;;;;18.00;11.15;;;;;;;10.91;100.00;98870.93;2311471;77;21002;-89
2021/10/04 02:22:32;;;;;;;12.50;10.23;;;;;;;10.95;100.00;98868.76;2311538;77;20914;-88
2021/10/04 02:25:32;;;;;;;15.30;10.80;;;;;;;10.97;100.00;98874.16;2311351;77;21000;-88
2021/10/04 02:28:33;;;;;;;14.98;10.30;;;;;;;10.96;100.00;98877.74;2311759;77;20974;-88
2021/10/04 02:31:34;;;;;;;13.62;10.48;;;;;;;11.01;100.00;98867.56;2311425;77;20947;-88
2021/10/04 02:34:35;;;;;;;14.18;11.43;;;;;;;10.96;100.00;98871.20;2310891;77;21006;-88
2021/10/04 02:37:36;;;;;;;16.10;11.63;;;;;;;10.88;100.00;98874.38;2307805;77;21007;-87
2021/10/04 02:40:36;;;;;;;13.45;10.65;;;;;;;10.86;100.00;98880.30;2306875;77;21458;-86
2021/10/04 02:43:37;;;;;;;14.47;10.78;;;;;;;10.79;100.00;98872.36;2306514;77;21038;-87
2021/10/04 02:46:38;;;;;;;14.55;11.78;;;;;;;10.73;100.00;98873.05;2306396;77;21033;-86
2021/10/04 02:49:39;;;;;;;14.43;10.72;;;;;;;10.70;100.00;98872.92;2308339;77;21108;-86
2021/10/04 02:52:40;;;;;;;15.85;10.95;;;;;;;10.66;100.00;98870.31;2310392;77;21046;-86
2021/10/04 02:55:41;;;;;;;11.43;10.28;;;;;;;10.70;100.00;98866.88;2310486;77;21537;-87
2021/10/04 02:58:42;;;;;;;13.90;10.43;;;;;;;10.73;100.00;98869.94;2310676;77;21010;-85
2021/10/04 03:01:43;;;;;;;12.05;10.28;;;;;;;10.69;100.00;98863.91;2310256;77;21048;-84
2021/10/04 03:04:44;;;;;;;13.95;10.38;;;;;;;10.63;100.00;98865.44;2310507;77;20994;-88
2021/10/04 03:07:44;;;;;;;12.25;9.83;;;;;;;10.61;100.00;98863.50;2310689;77;21025;-86
2021/10/04 03:10:45;;;;;;;12.80;11.28;;;;;;;10.71;100.00;98871.11;2310402;77;21045;-87
2021/10/04 03:13:46;;;;;;;16.82;10.98;;;;;;;10.65;100.00;98864.77;2310574;77;21004;-86
2021/10/04 03:16:47;;;;;;;15.65;11.10;;;;;;;10.67;100.00;98868.52;2310856;77;20985;-87
2021/10/04 03:19:48;;;;;;;14.10;10.18;;;;;;;10.70;100.00;98865.56;2310511;77;21064;-87
2021/10/04 03:22:48;;;;;;;14.38;10.88;;;;;;;10.66;100.00;98867.70;2310725;77;21020;-86
2021/10/04 03:25:49;;;;;;;14.93;10.35;;;;;;;10.63;100.00;98876.41;2310697;77;21501;-86
2021/10/04 03:28:50;;;;;;;16.10;10.55;;;;;;;10.66;100.00;98876.05;2313122;77;21089;-81
2021/10/04 03:31:51;;;;;;;11.65;9.68;;;;;;;10.65;100.00;98877.05;2313649;77;20989;-80
2021/10/04 03:34:52;;;;;;;10.82;9.68;;;;;;;10.67;100.00;98873.75;2313554;77;21013;-81
2021/10/04 03:37:53;;;;;;;16.10;11.48;;;;;;;10.59;100.00;98875.93;2313428;77;20934;-80
2021/10/04 03:40:54;;;;;;;11.57;10.38;;;;;;;10.50;100.00;98874.36;2313492;77;20957;-80
2021/10/04 03:43:55;;;;;;;17.55;10.68;;;;;;;10.46;100.00;98875.22;2313409;77;20938;-83
2021/10/04 03:46:56;;;;;;;14.87;10.70;;;;;;;10.46;100.00;98876.53;2313226;77;20934;-79
2021/10/04 03:49:57;;;;;;;13.72;11.05;;;;;;;10.46;100.00;98875.72;2312934;77;21055;-81
2021/10/04 03:52:57;;;;;;;15.80;10.50;;;;;;;10.51;100.00;98872.91;2313293;77;21045;-81
2021/10/04 03:55:58;;;;;;;13.43;12.00;;;;;;;10.43;100.00;98874.77;2313296;77;20978;-84
2021/10/04 03:58:59;;;;;;;11.40;9.55;;;;;;;10.41;100.00;98872.80;2313409;77;20922;-86
2021/10/04 04:02:00;;;;;;;11.80;10.28;;;;;;;10.45;100.00;98875.39;2313661;77;20934;-80
2021/10/04 04:05:01;;;;;;;12.45;9.93;;;;;;;10.37;100.00;98872.34;2312493;77;21013;-80
2021/10/04 04:08:02;;;;;;;10.98;9.63;;;;;;;10.40;100.00;98873.78;2312227;77;21469;-85
2021/10/04 04:11:03;;;;;;;12.58;9.58;;;;;;;10.36;100.00;98884.30;2312354;77;21001;-87
2021/10/04 04:14:04;;;;;;;14.25;10.13;;;;;;;10.31;100.00;98880.06;2312349;77;21002;-84
2021/10/04 04:17:04;;;;;;;13.13;10.43;;;;;;;10.30;100.00;98877.94;2313116;77;20981;-82
2021/10/04 04:20:05;;;;;;;13.25;10.78;;;;;;;10.30;100.00;98878.44;2313111;77;21007;-82
2021/10/04 04:23:06;;;;;;;11.50;9.55;;;;;;;10.32;100.00;98875.14;2313524;77;21029;-81
2021/10/04 04:26:07;;;;;;;14.47;10.88;;;;;;;10.37;100.00;98878.07;2313247;77;21006;-81
2021/10/04 04:29:08;;;;;;;12.45;10.00;;;;;;;10.27;100.00;98873.56;2312725;77;21056;-87
2021/10/04 04:32:09;;;;;;;11.40;9.33;;;;;;;10.23;100.00;98879.12;2312708;77;21021;-82
2021/10/04 04:35:09;;;;;;;12.73;9.40;;;;;;;10.22;100.00;98881.91;2311381;77;20942;-84
2021/10/04 04:38:10;;;;;;;15.00;10.88;;;;;;;10.22;100.00;98883.22;2310921;77;21021;-84
2021/10/04 04:41:11;;;;;;;18.20;12.88;;;;;;;10.25;100.00;98888.94;2310756;77;21492;-82
2021/10/04 04:44:14;;;;;;;13.93;10.68;;;;;;;10.17;100.00;98890.77;2310029;77;20998;-82
2021/10/04 04:47:15;;;;;;;14.83;9.78;;;;;;;10.04;100.00;98892.61;2310891;77;21033;-80
2021/10/04 04:50:17;;;;;;;12.25;9.98;;;;;;;9.92;100.00;98893.50;2308136;76;20971;-82
2021/10/04 04:53:20;;;;;;;15.00;10.25;;;;;;;9.83;100.00;98892.39;2306086;77;21066;-82
2021/10/04 04:56:21;;;;;;;14.35;10.23;;;;;;;9.74;100.00;98898.15;2306062;77;21038;-81
2021/10/04 04:59:22;;;;;;;13.53;10.98;;;;;;;9.67;100.00;98895.39;2306216;77;20915;-80
2021/10/04 05:02:23;;;;;;;15.35;13.83;;;;;;;9.63;100.00;98895.91;2306117;77;21018;-82
2021/10/04 05:05:24;;;;;;;18.30;13.00;;;;;;;9.60;100.00;98903.61;2306230;77;21538;-83
2021/10/04 05:08:25;;;;;;;15.23;12.40;;;;;;;9.62;100.00;98900.81;2306556;77;20966;-85
2021/10/04 05:11:26;;;;;;;14.20;11.15;;;;;;;9.63;100.00;98902.45;2306602;77;21526;-82
2021/10/04 05:14:26;;;;;;;11.80;8.78;;;;;;;9.63;100.00;98907.18;2306649;77;20977;-82
2021/10/04 05:17:27;;;;;;;14.70;10.05;;;;;;;9.69;100.00;98905.21;2306601;77;20958;-82
2021/10/04 05:20:28;;;;;;;14.35;11.60;;;;;;;9.79;100.00;98909.42;2306469;77;21589;-82
2021/10/04 05:23:30;;;;;;;13.03;11.80;;;;;;;9.88;100.00;98909.72;2306415;77;20970;-83
2021/10/04 05:26:30;;;;;;;15.72;13.35;;;;;;;9.97;100.00;98914.73;2306512;77;21549;-84
2021/10/04 05:29:32;;;;;;;11.80;9.98;;;;;;;10.03;100.00;98907.98;2306412;77;21001;-84
2021/10/04 05:32:32;;;;;;;14.83;12.63;;;;;;;10.11;100.00;98904.52;2306490;77;21048;-81
2021/10/04 05:35:33;;;;;;;17.75;15.18;;;;;;;10.18;100.00;98907.59;2306317;77;20951;-84
2021/10/04 05:38:34;;;;;;;15.35;13.75;;;;;;;10.27;100.00;98906.27;2306372;77;20965;-84
2021/10/04 05:41:35;;;;;;;16.30;11.95;;;;;;;10.34;100.00;98909.34;2306589;77;21470;-85
2021/10/04 05:44:36;;;;;;;11.63;10.13;;;;;;;10.46;100.00;98913.67;2306623;77;20993;-84
2021/10/04 05:47:37;;;;;;;13.65;9.45;;;;;;;10.57;100.00;98918.50;2306551;77;20985;-84
2021/10/04 05:50:38;;;;;;;9.55;8.53;;;;;;;10.70;100.00;98912.20;2306325;77;21024;-85
2021/10/04 05:53:39;;;;;;;16.55;9.13;;;;;;;10.87;100.00;98910.74;2306612;77;20965;-83
2021/10/04 05:56:40;;;;;;;9.93;8.93;;;;;;;10.96;100.00;98920.16;2306448;77;20962;-84
2021/10/04 05:59:41;;;;;;;12.90;9.55;;;;;;;11.05;100.00;98918.60;2306473;77;21063;-82
2021/10/04 06:02:42;;;;;;;9.20;8.40;;;;;;;11.10;100.00;98910.22;2306736;77;20979;-85
2021/10/04 06:05:43;;;;;;;12.05;8.43;;;;;;;11.20;100.00;98915.20;2306593;77;21032;-83
2021/10/04 06:08:43;;;;;;;10.25;9.15;;;;;;;11.34;100.00;98915.24;2306587;77;20977;-84
2021/10/04 06:11:44;;;;;;;10.60;9.05;;;;;;;11.39;100.00;98918.62;2306512;77;20974;-84
2021/10/04 06:14:45;;;;;;;13.98;10.03;;;;;;;11.53;100.00;98916.52;2306553;77;21045;-82
2021/10/04 06:17:46;;;;;;;9.25;8.38;;;;;;;11.61;100.00;98920.36;2307437;77;21385;-79
2021/10/04 06:20:47;;;;;;;13.85;9.18;;;;;;;11.72;100.00;98920.91;2309265;77;20938;-78
2021/10/04 06:23:48;;;;;;;9.23;8.33;;;;;;;11.82;100.00;98920.16;2309290;77;20942;-81
2021/10/04 06:26:49;;;;;;;10.75;8.33;;;;;;;11.97;100.00;98917.00;2306752;77;21057;-80
2021/10/04 06:29:50;;;;;;;11.85;8.78;;;;;;;12.12;100.00;98915.67;2306414;77;20942;-82
2021/10/04 06:32:51;;;;;;;11.38;9.65;;;;;;;12.19;100.00;98918.69;2306437;77;21021;-82
2021/10/04 06:35:51;;;;;;;11.33;10.13;;;;;;;12.32;100.00;98925.08;2306172;77;20977;-83
2021/10/04 06:38:52;;;;;;;10.32;9.23;;;;;;;12.35;100.00;98926.85;2306413;77;21008;-85
2021/10/04 06:41:53;;;;;;;12.28;9.20;;;;;;;12.42;100.00;98925.09;2306521;77;21485;-83
2021/10/04 06:44:54;;;;;;;12.13;9.83;;;;;;;12.52;100.00;98932.16;2306392;77;20946;-84
2021/10/04 06:47:55;;;;;;;10.60;9.38;;;;;;;12.53;100.00;98935.13;2306610;77;21004;-84
2021/10/04 06:50:56;;;;;;;10.03;8.78;;;;;;;12.66;100.00;98941.00;2306329;77;20990;-83
2021/10/04 06:53:57;;;;;;;14.28;10.13;;;;;;;12.82;100.00;98941.27;2306267;77;21001;-82
2021/10/04 06:56:58;;;;;;;11.20;9.53;;;;;;;12.89;100.00;98939.98;2306114;77;21391;-83
2021/10/04 06:59:59;;;;;;;10.13;8.40;;;;;;;12.99;100.00;98945.27;2306094;77;21009;-83
2021/10/04 07:03:00;;;;;;;12.25;9.45;;;;;;;13.07;100.00;98946.92;2306235;77;21303;-83
2021/10/04 07:06:01;;;;;;;12.35;8.73;;;;;;;13.24;100.00;98950.94;2305930;77;21120;-84
2021/10/04 07:09:02;;;;;;;9.78;8.40;;;;;;;13.24;100.00;98950.94;2306170;77;20985;-84
2021/10/04 07:12:03;;;;;;;9.20;8.23;;;;;;;13.30;100.00;98958.06;2306129;77;20978;-84
2021/10/04 07:15:04;;;;;;;10.08;9.13;;;;;;;13.40;100.00;98952.98;2306259;77;20954;-84
2021/10/04 07:18:05;;;;;;;10.90;9.78;;;;;;;13.49;100.00;98955.77;2306103;77;21505;-83
2021/10/04 07:21:06;;;;;;;12.85;8.95;;;;;;;13.61;100.00;98955.54;2306256;77;20926;-84
2021/10/04 07:24:08;;;;;;;9.90;8.60;;;;;;;13.65;100.00;98960.23;2306335;77;20989;-82
2021/10/04 07:27:09;;;;;;;13.13;9.35;;;;;;;13.78;100.00;98962.13;2306155;77;21021;-83
2021/10/04 07:30:10;;;;;;;11.35;9.23;;;;;;;13.91;100.00;98959.58;2306494;77;21017;-84
2021/10/04 07:33:11;;;;;;;13.32;9.55;;;;;;;14.12;100.00;98961.29;2306436;77;20954;-83
2021/10/04 07:36:12;;;;;;;12.25;9.50;;;;;;;14.26;100.00;98962.14;2306458;77;21052;-83
2021/10/04 07:39:15;;;;;;;11.93;8.65;;;;;;;14.33;100.00;98966.13;2306502;77;21485;-84
2021/10/04 07:42:16;;;;;;;11.45;9.80;;;;;;;14.44;100.00;98960.28;2306610;77;20997;-83
2021/10/04 07:45:17;;;;;;;12.88;10.25;;;;;;;14.46;100.00;98962.27;2306531;77;21024;-83
2021/10/04 07:48:18;;;;;;;11.95;9.28;;;;;;;14.55;100.00;98954.99;2306476;77;21521;-84
2021/10/04 07:51:20;;;;;;;10.00;9.00;;;;;;;14.63;100.00;98966.64;2305820;77;21062;-84
2021/10/04 07:54:21;;;;;;;10.43;9.20;;;;;;;14.69;100.00;98967.17;2306340;77;21050;-83
2021/10/04 07:57:22;;;;;;;9.35;8.45;;;;;;;14.84;100.00;98971.77;2306587;77;20970;-84
2021/10/04 08:00:23;;;;;;;11.55;8.90;;;;;;;14.99;100.00;98978.16;2306341;77;21574;-83
2021/10/04 08:03:24;;;;;;;10.28;8.43;;;;;;;15.13;100.00;98966.63;2306306;77;21029;-84
2021/10/04 08:06:28;;;;;;;12.37;8.80;;;;;;;15.26;100.00;98967.93;2306322;77;20946;-84
2021/10/04 08:09:29;;;;;;;10.40;9.30;;;;;;;15.46;100.00;98966.63;2306274;77;21060;-83
2021/10/04 08:12:30;;;;;;;15.28;10.03;;;;;;;15.64;100.00;98967.34;2306106;77;21450;-84
2021/10/04 08:15:31;;;;;;;17.57;9.78;;;;;;;15.76;100.00;98974.11;2306207;77;21505;-82
2021/10/04 08:18:32;;;;;;;13.95;9.48;;;;;;;15.84;100.00;98973.39;2306404;77;21436;-83
2021/10/04 08:21:33;;;;;;;9.35;8.45;;;;;;;15.95;100.00;98978.53;2306477;77;20974;-82
2021/10/04 08:24:35;;;;;;;9.53;8.20;;;;;;;15.99;100.00;98970.48;2307125;77;21021;-83
2021/10/04 08:27:35;;;;;;;11.80;8.58;;;;;;;16.09;100.00;98969.56;2306659;77;21011;-84
2021/10/04 08:30:37;;;;;;;10.03;8.55;;;;;;;16.24;100.00;98971.93;2306531;77;21032;-84
2021/10/04 08:33:38;;;;;;;11.65;8.40;;;;;;;16.35;100.00;98963.34;2306639;77;21025;-84
2021/10/04 08:36:39;;;;;;;15.23;8.83;;;;;;;16.53;100.00;98966.60;2306651;77;20986;-83
2021/10/04 08:39:40;;;;;;;9.63;8.53;;;;;;;16.70;100.00;98965.12;2306658;77;20997;-84
2021/10/04 08:42:41;;;;;;;15.03;9.25;;;;;;;16.85;100.00;98955.58;2306524;77;21066;-82
2021/10/04 08:45:44;;;;;;;9.03;8.13;;;;;;;16.99;100.00;98961.05;2306396;77;20950;-84
2021/10/04 08:48:45;;;;;;;9.55;8.55;;;;;;;17.10;100.00;98953.45;2306028;77;20990;-84
2021/10/04 08:51:46;;;;;;;14.05;9.78;;;;;;;17.19;100.00;98962.73;2306457;77;20987;-85
2021/10/04 08:54:47;;;;;;;13.08;11.00;;;;;;;17.23;99.76;98959.45;2306663;77;21020;-82
2021/10/04 08:57:47;;;;;;;11.75;9.13;;;;;;;17.27;99.94;98965.92;2306531;77;21021;-85
2021/10/04 09:00:48;;;;;;;12.28;8.90;;;;;;;17.33;98.92;98961.61;2306491;77;21321;-83
2021/10/04 09:03:49;;;;;;;18.23;11.93;;;;;;;17.35;98.73;98966.97;2306700;77;21092;-82
2021/10/04 09:06:50;;;;;;;14.98;9.83;;;;;;;17.37;97.10;98968.08;2306714;77;20961;-85
2021/10/04 09:09:51;;;;;;;11.68;10.05;;;;;;;17.40;97.84;98958.40;2306461;77;21542;-83
2021/10/04 09:12:52;;;;;;;13.68;11.53;;;;;;;17.43;97.21;98956.63;2306656;77;22104;-82
2021/10/04 09:15:53;;;;;;;16.97;9.70;;;;;;;17.49;96.16;98955.77;2306680;77;20954;-83
2021/10/04 09:18:55;;;;;;;14.58;9.05;;;;;;;17.57;96.92;98960.78;2306498;77;21098;-83
2021/10/04 09:21:56;;;;;;;11.30;8.85;;;;;;;17.70;97.08;98951.11;2306547;77;21351;-83
2021/10/04 09:24:57;;;;;;;10.15;8.40;;;;;;;17.79;96.86;98945.82;2306571;77;20958;-83
2021/10/04 09:27:57;;;;;;;8.90;7.95;;;;;;;17.87;95.25;98952.16;2306581;77;20966;-83
2021/10/04 09:30:58;;;;;;;9.48;8.48;;;;;;;17.91;95.58;98944.86;2306638;77;21005;-84
2021/10/04 09:34:00;;;;;;;9.78;8.30;;;;;;;18.01;95.96;98940.87;2306476;77;20958;-83
2021/10/04 09:37:01;;;;;;;10.23;9.00;;;;;;;18.10;95.21;98938.22;2306711;77;21482;-84
2021/10/04 09:40:02;;;;;;;9.50;8.50;;;;;;;18.16;95.22;98939.47;2306404;77;21077;-85
2021/10/04 09:43:04;;;;;;;11.73;9.33;;;;;;;18.26;95.21;98944.77;2306395;77;21010;-84
2021/10/04 09:46:05;;;;;;;10.80;9.70;;;;;;;18.34;92.22;98937.83;2306485;77;20993;-82
2021/10/04 09:49:06;;;;;;;13.30;11.43;;;;;;;18.33;93.36;98934.89;2306336;77;20966;-83
2021/10/04 09:52:07;;;;;;;14.40;10.58;;;;;;;18.38;92.09;98938.50;2288975;77;21081;-83
2021/10/04 09:55:08;;;;;;;10.72;8.68;;;;;;;18.37;91.25;98937.38;2283190;78;20981;-83
2021/10/04 09:58:14;;;;;;;11.95;9.45;;;;;;;18.40;91.58;98927.66;2283096;78;20970;-82
2021/10/04 10:01:11;;;;;;;12.28;9.78;;;;;;;18.43;92.08;98930.66;2281292;78;20966;-84
2021/10/04 10:04:20;;;;;;;11.93;8.85;;;;;;;18.42;89.58;98920.30;2282937;78;20989;-83
2021/10/04 10:07:15;;;;;;;23.95;9.83;;;;;;;18.41;89.58;98922.13;2281933;78;21513;-84
2021/10/04 10:10:16;;;;;;;12.78;9.00;;;;;;;18.42;89.84;98922.94;2283093;78;20978;-84
2021/10/04 10:13:17;;;;;;;11.45;8.90;;;;;;;18.47;90.70;98918.59;2282924;78;21013;-84
2021/10/04 10:16:18;;;;;;;9.45;8.55;;;;;;;18.56;89.70;98915.11;2282922;78;21049;-84
2021/10/04 10:19:19;;;;;;;9.88;7.92;;;;;;;18.61;90.87;98917.06;2283032;78;21056;-83
2021/10/04 10:22:20;;;;;;;11.15;8.03;;;;;;;18.71;90.89;98917.35;2282945;78;21457;-83
2021/10/04 10:25:21;;;;;;;10.05;6.75;;;;;;;18.84;90.79;98920.34;2283032;78;21027;-83
2021/10/04 10:28:22;;;;;;;10.45;8.45;;;;;;;18.94;90.89;98924.05;2282818;78;21041;-85
2021/10/04 10:31:24;;;;;;;8.78;7.95;;;;;;;19.04;90.58;98919.50;2282694;78;21061;-85
2021/10/04 10:34:25;;;;;;;9.68;7.97;;;;;;;19.12;90.61;98919.69;2282996;78;21077;-81
2021/10/04 10:37:27;;;;;;;8.88;7.30;;;;;;;19.21;90.69;98917.79;2282586;78;21033;-84
2021/10/04 10:40:28;;;;;;;8.28;7.47;;;;;;;19.31;89.59;98922.00;2282702;78;21052;-84
2021/10/04 10:43:29;;;;;;;9.80;8.88;;;;;;;19.35;89.44;98918.87;2282506;78;21567;-83
2021/10/04 10:46:30;;;;;;;8.75;7.58;;;;;;;19.42;89.46;98922.23;2282642;78;21509;-83
2021/10/04 10:49:31;;;;;;;8.55;7.67;;;;;;;19.46;88.58;98917.53;2282866;78;21021;-85
2021/10/04 10:52:32;;;;;;;13.18;8.68;;;;;;;19.51;89.06;98921.64;2282525;77;21033;-85
2021/10/04 10:55:33;;;;;;;10.00;8.60;;;;;;;19.55;88.18;98920.13;2283087;78;21143;-84
2021/10/04 10:58:34;;;;;;;8.93;8.05;;;;;;;19.60;88.53;98914.16;2283082;78;21001;-84
2021/10/04 11:01:35;;;;;;;10.08;7.80;;;;;;;19.66;88.52;98919.05;2283004;78;21004;-84
2021/10/04 11:04:36;;;;;;;10.43;8.23;;;;;;;19.65;88.58;98904.15;2282674;78;21269;-84
2021/10/04 11:07:37;;;;;;;8.93;8.08;;;;;;;19.78;88.36;98920.66;2282986;78;21562;-84
2021/10/04 11:10:41;;;;;;;8.43;7.62;;;;;;;19.85;87.72;98915.22;2283086;78;21056;-84
2021/10/04 11:13:41;;;;;;;10.13;7.85;;;;;;;19.84;86.31;98907.78;2283326;78;21046;-83
2021/10/04 11:16:42;;;;;;;8.68;7.72;;;;;;;19.90;87.25;98904.69;2283084;78;21493;-84
2021/10/04 11:19:43;;;;;;;9.78;8.20;;;;;;;19.98;87.38;98914.14;2283818;78;21044;-82
2021/10/04 11:22:44;;;;;;;8.83;8.03;;;;;;;20.02;87.08;98912.09;2283427;78;20970;-84
2021/10/04 11:25:45;;;;;;;11.43;8.83;;;;;;;20.09;87.07;98911.44;2283473;78;21554;-84
2021/10/04 11:28:48;;;;;;;11.08;8.25;;;;;;;20.12;86.25;98917.64;2283904;78;20950;-83
2021/10/04 11:31:49;;;;;;;9.73;8.35;;;;;;;20.16;85.72;98918.77;2283358;78;21041;-84
2021/10/04 11:34:50;;;;;;;10.95;8.95;;;;;;;20.20;85.23;98920.94;2282947;78;21053;-87
2021/10/04 11:37:51;;;;;;;10.45;8.10;;;;;;;20.14;84.59;98915.55;2283074;78;21005;-84
2021/10/04 11:40:52;;;;;;;10.23;8.70;;;;;;;20.15;84.36;98916.34;2283212;78;21006;-85
2021/10/04 11:43:53;;;;;;;10.63;8.48;;;;;;;20.21;84.97;98918.56;2282997;78;21522;-86
2021/10/04 11:46:54;;;;;;;10.38;8.60;;;;;;;20.23;84.79;98921.81;2282902;78;21009;-85
2021/10/04 11:49:55;;;;;;;9.50;8.33;;;;;;;20.24;84.50;98920.24;2283073;78;20982;-84
2021/10/04 11:52:56;;;;;;;11.68;7.78;;;;;;;20.27;84.35;98925.08;2302295;77;20939;-84
2021/10/04 11:55:57;;;;;;;8.43;7.45;;;;;;;20.30;84.08;98918.47;2306523;77;21025;-83
2021/10/04 11:58:58;;;;;;;9.08;8.10;;;;;;;20.31;83.15;98916.93;2306364;77;21521;-85
2021/10/04 12:01:59;;;;;;;9.73;8.43;;;;;;;20.30;83.97;98919.30;2306407;77;20958;-83
2021/10/04 12:05:00;;;;;;;11.83;9.25;;;;;;;20.35;84.09;98921.23;2306622;77;21065;-84
2021/10/04 12:08:01;;;;;;;9.13;8.25;;;;;;;20.37;82.14;98918.62;2306533;77;21020;-82
2021/10/04 12:11:06;;;;;;;9.90;8.10;;;;;;;20.41;81.42;98917.64;2306460;77;21547;-83
2021/10/04 12:14:05;;;;;;;9.70;8.75;;;;;;;20.43;82.53;98919.56;2306275;77;21002;-83
2021/10/04 12:17:06;;;;;;;10.15;8.20;;;;;;;20.45;82.09;98908.96;2306549;77;21018;-85
2021/10/04 12:20:07;;;;;;;9.20;7.97;;;;;;;20.49;82.71;98913.30;2306666;77;21054;-82
2021/10/04 12:23:07;;;;;;;11.45;8.33;;;;;;;20.54;82.84;98915.23;2307003;77;20982;-83
2021/10/04 12:26:08;;;;;;;8.70;7.95;;;;;;;20.58;82.58;98909.73;2307887;77;21108;-82
2021/10/04 12:29:09;;;;;;;8.85;7.90;;;;;;;20.57;82.02;98905.43;2307068;77;20969;-82
2021/10/04 12:32:10;;;;;;;10.85;8.40;;;;;;;20.58;81.64;98909.20;2308431;77;20919;-79
2021/10/04 12:35:12;;;;;;;9.45;8.65;;;;;;;20.60;81.68;98900.98;2307551;77;20946;-83
2021/10/04 12:38:14;;;;;;;12.90;8.80;;;;;;;20.60;81.84;98899.12;2306748;77;21548;-82
2021/10/04 12:41:16;;;;;;;9.93;8.88;;;;;;;20.61;82.01;98900.73;2306713;77;20966;-84
2021/10/04 12:44:17;;;;;;;11.57;8.15;;;;;;;20.62;81.37;98896.22;2306822;77;21505;-83
2021/10/04 12:47:18;;;;;;;10.38;8.83;;;;;;;20.66;81.98;98897.34;2306579;77;20958;-83
2021/10/04 12:50:19;;;;;;;9.05;7.62;;;;;;;20.69;82.13;98904.34;2306506;77;20977;-84
2021/10/04 12:53:20;;;;;;;9.80;8.40;;;;;;;20.71;81.09;98909.41;2309965;77;20986;-84
2021/10/04 12:56:20;;;;;;;9.60;8.08;;;;;;;20.71;81.61;98910.22;2310622;77;20961;-82
2021/10/04 12:59:21;;;;;;;9.85;8.20;;;;;;;20.72;81.86;98907.84;2310748;77;21477;-85
2021/10/04 13:02:25;;;;;;;10.98;8.50;;;;;;;20.71;81.53;98907.55;2310675;77;21115;-85
2021/10/04 13:05:25;;;;;;;13.65;9.18;;;;;;;20.73;81.70;98912.11;2310605;77;20974;-84
2021/10/04 13:08:26;;;;;;;11.15;8.33;;;;;;;20.74;81.60;98911.05;2310723;77;20954;-85
2021/10/04 13:11:27;;;;;;;9.53;8.63;;;;;;;20.73;81.35;98908.12;2311043;77;21260;-85
2021/10/04 13:14:28;;;;;;;12.65;8.75;;;;;;;20.76;81.78;98914.00;2310681;77;21006;-85
2021/10/04 13:17:29;;;;;;;9.85;8.95;;;;;;;20.72;81.53;98909.69;2310818;77;21017;-84
2021/10/04 13:20:30;;;;;;;9.00;8.18;;;;;;;20.72;81.13;98914.48;2310693;77;21006;-86
2021/10/04 13:23:31;;;;;;;9.78;8.28;;;;;;;20.71;81.55;98912.88;2311787;77;21465;-83
2021/10/04 13:26:32;;;;;;;9.43;8.23;;;;;;;20.70;81.10;98909.13;2310514;77;20911;-85
2021/10/04 13:29:33;;;;;;;9.73;8.48;;;;;;;20.71;80.85;98913.41;2310636;77;21009;-83
2021/10/04 13:32:33;;;;;;;12.33;9.63;;;;;;;20.70;80.70;98912.59;2310575;77;21502;-87
2021/10/04 13:35:34;;;;;;;9.88;8.93;;;;;;;20.70;80.89;98911.80;2310660;77;21265;-84
2021/10/04 13:38:35;;;;;;;12.25;10.03;;;;;;;20.70;81.01;98914.45;2310587;77;20978;-86
2021/10/04 13:41:36;;;;;;;15.25;10.28;;;;;;;20.70;81.08;98920.58;2310340;77;21120;-85
2021/10/04 13:44:37;;;;;;;12.40;10.18;;;;;;;20.68;80.42;98917.89;2310161;77;21501;-85
2021/10/04 13:47:38;;;;;;;11.43;9.15;;;;;;;20.65;79.70;98920.48;2310183;77;21469;-85
2021/10/04 13:50:39;;;;;;;11.08;9.20;;;;;;;20.63;80.53;98920.44;2310122;77;20994;-84
2021/10/04 13:53:40;;;;;;;10.98;9.98;;;;;;;20.61;80.45;98921.21;2306587;77;20966;-85